createdAt,value
2019-03-16T00:01:39.017Z,90.87
2019-03-16T00:04:08.473Z,90.83
2019-03-16T00:06:37.903Z,90.66
2019-03-16T00:09:08.832Z,90.61
2019-03-16T00:11:38.116Z,90.71
2019-03-16T00:14:07.374Z,90.66
2019-03-16T00:16:36.734Z,90.52
2019-03-16T00:19:06.104Z,90.72
2019-03-16T00:21:35.356Z,90.96
2019-03-16T00:24:04.829Z,90.38
2019-03-16T00:26:34.216Z,90.15
2019-03-16T00:29:03.525Z,89.87
2019-03-16T00:31:32.840Z,90.20
2019-03-16T00:34:02.336Z,90.09
2019-03-16T00:36:31.690Z,90.21
2019-03-16T00:39:01.016Z,89.82
2019-03-16T00:41:30.297Z,89.97
2019-03-16T00:43:59.680Z,89.85
2019-03-16T00:46:29.136Z,90.11
2019-03-16T00:48:58.511Z,90.26
2019-03-16T00:51:27.789Z,90.43
2019-03-16T00:53:57.131Z,90.13
2019-03-16T00:56:26.454Z,90.48
2019-03-16T00:58:55.678Z,90.34
2019-03-16T01:01:24.955Z,90.71
2019-03-16T01:03:54.574Z,90.37
2019-03-16T01:06:24.048Z,90.65
2019-03-16T01:08:53.488Z,90.48
2019-03-16T01:11:22.835Z,90.66
2019-03-16T01:13:52.083Z,90.49
2019-03-16T01:16:21.414Z,91.00
2019-03-16T01:18:51.038Z,90.84
2019-03-16T01:21:20.688Z,90.98
2019-03-16T01:23:49.959Z,91.34
2019-03-16T01:26:19.285Z,90.57
2019-03-16T01:28:48.686Z,91.20
2019-03-16T01:31:18.008Z,91.27
2019-03-16T01:33:47.343Z,91.35
2019-03-16T01:36:16.676Z,90.85
2019-03-16T01:38:45.951Z,90.01
2019-03-16T01:41:15.241Z,90.68
2019-03-16T01:43:44.551Z,90.41
2019-03-16T01:46:13.909Z,90.78
2019-03-16T01:48:43.137Z,90.07
2019-03-16T01:51:12.411Z,90.56
2019-03-16T01:53:41.761Z,90.98
2019-03-16T01:56:11.106Z,90.12
2019-03-16T01:58:40.395Z,90.40
2019-03-16T02:01:09.708Z,90.88
2019-03-16T02:03:39.023Z,90.98
2019-03-16T02:06:08.382Z,91.22
2019-03-16T02:08:37.641Z,91.24
2019-03-16T02:11:06.947Z,91.37
2019-03-16T02:13:36.342Z,91.38
2019-03-16T02:16:10.824Z,91.23
2019-03-16T02:18:36.639Z,91.62
2019-03-16T02:21:06.095Z,91.72
2019-03-16T02:23:35.366Z,91.05
2019-03-16T02:26:04.709Z,91.19
2019-03-16T02:28:34.001Z,91.54
2019-03-16T02:31:03.326Z,92.04
2019-03-16T02:33:32.645Z,91.68
2019-03-16T02:36:01.994Z,91.85
2019-03-16T02:38:31.267Z,92.05
2019-03-16T02:41:00.712Z,91.92
2019-03-16T02:43:30.064Z,91.90
2019-03-16T02:45:59.365Z,91.60
2019-03-16T02:48:28.697Z,91.19
2019-03-16T02:50:58.067Z,91.63
2019-03-16T02:53:27.316Z,91.37
2019-03-16T02:55:56.672Z,91.19
2019-03-16T02:58:26.109Z,90.42
2019-03-16T03:00:55.429Z,90.57
2019-03-16T03:03:29.749Z,90.81
2019-03-16T03:05:55.720Z,90.48
2019-03-16T03:08:25.020Z,90.69
2019-03-16T03:10:54.318Z,90.17
2019-03-16T03:13:23.638Z,90.12
2019-03-16T03:15:52.959Z,90.08
2019-03-16T03:18:22.239Z,90.17
2019-03-16T03:20:51.699Z,90.43
2019-03-16T03:23:21.094Z,90.99
2019-03-16T03:25:50.407Z,90.93
2019-03-16T03:28:19.774Z,90.79
2019-03-16T03:30:49.064Z,90.85
2019-03-16T03:33:18.306Z,90.53
2019-03-16T03:35:47.590Z,90.59
2019-03-16T03:38:16.910Z,90.50
2019-03-16T03:40:46.196Z,91.09
2019-03-16T03:43:15.483Z,90.97
2019-03-16T03:45:44.822Z,90.07
2019-03-16T03:48:14.138Z,90.29
2019-03-16T03:50:43.455Z,89.87
2019-03-16T03:53:12.772Z,89.38
2019-03-16T03:55:42.153Z,89.17
2019-03-16T03:58:11.596Z,89.13
2019-03-16T04:00:40.943Z,89.27
2019-03-16T04:03:10.243Z,88.93
2019-03-16T04:05:39.528Z,88.70
2019-03-16T04:08:08.822Z,88.73
2019-03-16T04:10:38.250Z,88.98
2019-03-16T04:13:07.519Z,89.05
2019-03-16T04:15:36.853Z,89.15
2019-03-16T04:18:06.133Z,89.25
2019-03-16T04:20:35.411Z,89.54
2019-03-16T04:23:04.703Z,89.74
2019-03-16T04:25:34.225Z,90.29
2019-03-16T04:28:03.562Z,90.77
2019-03-16T04:30:32.834Z,90.81
2019-03-16T04:33:02.112Z,90.67
2019-03-16T04:35:31.589Z,90.89
2019-03-16T04:38:00.947Z,90.84
2019-03-16T04:40:30.223Z,91.25
2019-03-16T04:43:00.103Z,91.41
2019-03-16T04:45:29.382Z,91.72
2019-03-16T04:47:58.652Z,91.92
2019-03-16T04:50:27.946Z,92.29
2019-03-16T04:52:57.272Z,92.01
2019-03-16T04:55:26.551Z,91.99
2019-03-16T04:57:55.847Z,91.99
2019-03-16T05:00:25.135Z,91.73
2019-03-16T05:02:54.487Z,91.71
2019-03-16T05:05:23.785Z,91.61
2019-03-16T05:07:53.163Z,91.32
2019-03-16T05:10:22.430Z,91.94
2019-03-16T05:12:51.838Z,91.40
2019-03-16T05:15:21.202Z,90.76
2019-03-16T05:17:50.475Z,91.28
2019-03-16T05:20:19.718Z,91.52
2019-03-16T05:22:49.109Z,91.57
2019-03-16T05:25:18.363Z,90.96
2019-03-16T05:27:47.615Z,90.90
2019-03-16T05:30:16.931Z,91.35
2019-03-16T05:32:46.234Z,90.92
2019-03-16T05:35:15.548Z,91.12
2019-03-16T05:37:44.831Z,91.58
2019-03-16T05:40:14.120Z,91.55
2019-03-16T05:42:43.622Z,91.91
2019-03-16T05:45:13.179Z,91.75
2019-03-16T05:47:42.446Z,92.28
2019-03-16T05:50:11.897Z,92.03
2019-03-16T05:52:41.540Z,91.86
2019-03-16T05:55:10.832Z,90.95
2019-03-16T05:57:40.092Z,90.61
2019-03-16T06:00:10.316Z,90.01
2019-03-16T06:02:39.628Z,89.41
2019-03-16T06:05:10.746Z,88.34
2019-03-16T06:07:39.970Z,88.45
2019-03-16T06:10:09.644Z,88.06
2019-03-16T06:12:38.937Z,88.41
2019-03-16T06:15:08.424Z,88.24
2019-03-16T06:17:37.708Z,88.08
2019-03-16T06:20:07.568Z,87.50
2019-03-16T06:22:36.889Z,86.72
2019-03-16T06:25:06.546Z,86.68
2019-03-16T06:27:35.824Z,84.22
2019-03-16T06:30:06.192Z,80.39
2019-03-16T06:32:35.811Z,76.93
2019-03-16T06:35:05.301Z,73.88
2019-03-16T06:37:34.567Z,74.59
2019-03-16T06:40:04.441Z,76.62
2019-03-16T06:42:33.776Z,78.45
2019-03-16T06:45:03.338Z,79.04
2019-03-16T06:47:32.646Z,79.89
2019-03-16T06:50:02.119Z,80.15
2019-03-16T06:52:31.478Z,80.71
2019-03-16T06:55:00.794Z,78.64
2019-03-16T06:57:30.150Z,79.00
2019-03-16T06:59:59.508Z,77.56
2019-03-16T07:02:28.764Z,74.90
2019-03-16T07:04:58.068Z,71.90
2019-03-16T07:07:27.586Z,70.77
2019-03-16T07:09:56.916Z,69.54
2019-03-16T07:12:26.236Z,69.23
2019-03-16T07:14:55.509Z,68.47
2019-03-16T07:17:24.805Z,67.68
2019-03-16T07:19:54.118Z,70.99
2019-03-16T07:22:23.438Z,72.00
2019-03-16T07:24:52.700Z,71.87
2019-03-16T07:27:26.457Z,70.94
2019-03-16T07:29:53.023Z,68.96
2019-03-16T07:32:22.509Z,69.92
2019-03-16T07:34:51.786Z,71.49
2019-03-16T07:37:21.072Z,71.74
2019-03-16T07:39:50.363Z,71.78
2019-03-16T07:42:19.646Z,73.88
2019-03-16T07:44:49.028Z,72.82
2019-03-16T07:47:18.341Z,74.05
2019-03-16T07:49:47.658Z,73.85
2019-03-16T07:52:16.926Z,73.12
2019-03-16T07:54:46.280Z,73.85
2019-03-16T07:57:15.604Z,73.35
2019-03-16T07:59:45.080Z,73.91
2019-03-16T08:02:14.381Z,72.08
2019-03-16T08:04:43.769Z,71.61
2019-03-16T08:07:13.123Z,71.72
2019-03-16T08:09:42.423Z,70.61
2019-03-16T08:12:11.762Z,70.84
2019-03-16T08:14:41.356Z,67.42
2019-03-16T08:17:10.817Z,65.90
2019-03-16T08:19:40.238Z,63.01
2019-03-16T08:22:09.550Z,62.91
2019-03-16T08:24:39.042Z,62.00
2019-03-16T08:27:08.370Z,62.36
2019-03-16T08:29:37.678Z,66.28
2019-03-16T08:32:06.954Z,65.74
2019-03-16T08:34:36.366Z,66.64
2019-03-16T08:37:05.706Z,67.89
2019-03-16T08:39:35.029Z,63.34
2019-03-16T08:42:04.350Z,61.75
2019-03-16T08:44:33.633Z,59.82
2019-03-16T08:47:02.936Z,61.82
2019-03-16T08:49:32.318Z,62.14
2019-03-16T08:52:01.603Z,66.27
2019-03-16T08:54:30.976Z,68.45
2019-03-16T08:57:00.356Z,67.73
2019-03-16T08:59:29.697Z,68.99
2019-03-16T09:01:59.011Z,69.17
2019-03-16T09:04:28.290Z,68.44
2019-03-16T09:06:57.644Z,68.08
2019-03-16T09:09:26.940Z,66.84
2019-03-16T09:11:58.251Z,67.59
2019-03-16T09:14:27.232Z,69.26
2019-03-16T09:16:56.594Z,71.02
2019-03-16T09:19:25.881Z,70.45
2019-03-16T09:21:55.158Z,69.09
2019-03-16T09:24:24.479Z,69.68
2019-03-16T09:26:53.765Z,68.93
2019-03-16T09:29:23.092Z,68.47
2019-03-16T09:31:52.427Z,70.78
2019-03-16T09:34:21.754Z,69.66
2019-03-16T09:36:51.230Z,70.74
2019-03-16T09:39:20.514Z,69.44
2019-03-16T09:41:49.859Z,68.86
2019-03-16T09:44:19.165Z,70.44
2019-03-16T09:46:48.430Z,69.55
2019-03-16T09:49:17.722Z,67.69
2019-03-16T09:51:47.075Z,68.01
2019-03-16T09:54:16.382Z,68.52
2019-03-16T09:56:45.657Z,68.79
2019-03-16T09:59:15.073Z,69.27
2019-03-16T10:01:44.415Z,70.23
2019-03-16T10:04:13.713Z,71.13
2019-03-16T10:06:42.994Z,71.69
2019-03-16T10:09:12.303Z,70.64
2019-03-16T10:11:41.663Z,70.94
2019-03-16T10:14:10.975Z,70.01
2019-03-16T10:16:40.289Z,70.12
2019-03-16T10:19:09.618Z,69.59
2019-03-16T10:21:39.010Z,69.78
2019-03-16T10:24:08.270Z,70.36
2019-03-16T10:26:37.756Z,69.14
2019-03-16T10:29:07.350Z,69.71
2019-03-16T10:31:36.904Z,69.23
2019-03-16T10:34:06.346Z,64.14
2019-03-16T10:36:35.617Z,60.59
2019-03-16T10:39:06.259Z,60.21
2019-03-16T10:41:35.584Z,61.45
2019-03-16T10:44:04.957Z,62.62
2019-03-16T10:46:34.238Z,63.14
2019-03-16T10:49:03.627Z,66.16
2019-03-16T10:51:32.945Z,67.09
2019-03-16T10:54:02.252Z,66.48
2019-03-16T10:56:31.584Z,66.16
2019-03-16T10:59:00.947Z,68.59
2019-03-16T11:01:30.220Z,67.98
2019-03-16T11:03:59.553Z,66.33
2019-03-16T11:06:28.907Z,68.25
2019-03-16T11:08:58.213Z,68.49
2019-03-16T11:11:27.461Z,69.17
2019-03-16T11:13:56.813Z,68.58
2019-03-16T11:16:26.167Z,68.18
2019-03-16T11:18:55.472Z,68.94
2019-03-16T11:21:24.809Z,68.51
2019-03-16T11:23:54.095Z,68.86
2019-03-16T11:26:23.379Z,68.69
2019-03-16T11:28:52.741Z,68.07
2019-03-16T11:31:22.076Z,67.73
2019-03-16T11:33:51.353Z,68.16
2019-03-16T11:36:20.620Z,68.14
2019-03-16T11:38:49.916Z,68.74
2019-03-16T11:41:19.326Z,69.09
2019-03-16T11:43:48.632Z,68.82
2019-03-16T11:46:17.899Z,66.90
2019-03-16T11:48:47.214Z,67.75
2019-03-16T11:51:16.488Z,67.23
2019-03-16T11:53:45.870Z,66.72
2019-03-16T11:56:18.335Z,65.48
2019-03-16T11:58:46.239Z,64.55
2019-03-16T12:01:15.543Z,62.05
2019-03-16T12:03:44.919Z,64.37
2019-03-16T12:06:14.365Z,64.14
2019-03-16T12:08:43.780Z,64.47
2019-03-16T12:11:13.191Z,64.77
2019-03-16T12:13:43.996Z,64.11
2019-03-16T12:16:13.681Z,61.37
2019-03-16T12:18:42.963Z,62.93
2019-03-16T12:21:12.621Z,61.92
2019-03-16T12:23:41.935Z,60.55
2019-03-16T12:26:11.190Z,61.82
2019-03-16T12:28:40.495Z,62.94
2019-03-16T12:31:09.844Z,62.84
2019-03-16T12:33:39.162Z,62.37
2019-03-16T12:36:08.560Z,63.44
2019-03-16T12:38:37.870Z,62.15
2019-03-16T12:41:07.236Z,61.97
2019-03-16T12:43:36.741Z,61.96
2019-03-16T12:46:06.048Z,61.96
2019-03-16T12:48:35.453Z,62.78
2019-03-16T12:51:04.726Z,64.19
2019-03-16T12:53:34.031Z,66.23
2019-03-16T12:56:03.824Z,65.61
2019-03-16T12:58:33.145Z,65.98
2019-03-16T13:01:02.487Z,66.44
2019-03-16T13:03:31.780Z,65.40
2019-03-16T13:06:01.100Z,65.66
2019-03-16T13:08:30.422Z,65.45
2019-03-16T13:10:59.733Z,65.86
2019-03-16T13:13:29.024Z,64.94
2019-03-16T13:15:58.349Z,64.03
2019-03-16T13:18:28.168Z,64.62
2019-03-16T13:20:57.472Z,65.24
2019-03-16T13:23:26.732Z,63.79
2019-03-16T13:25:56.188Z,63.08
2019-03-16T13:28:25.528Z,64.15
2019-03-16T13:30:54.785Z,65.27
2019-03-16T13:33:24.107Z,65.46
2019-03-16T13:35:53.441Z,64.93
2019-03-16T13:38:22.700Z,66.10
2019-03-16T13:40:52.015Z,65.50
2019-03-16T13:43:21.391Z,64.85
2019-03-16T13:45:50.840Z,65.44
2019-03-16T13:48:20.126Z,66.64
2019-03-16T13:50:49.435Z,66.02
2019-03-16T13:53:18.864Z,65.94
2019-03-16T13:55:48.311Z,66.58
2019-03-16T13:58:17.601Z,66.42
2019-03-16T14:00:47.832Z,66.96
2019-03-16T14:03:17.313Z,67.50
2019-03-16T14:05:46.610Z,67.53
2019-03-16T14:08:15.958Z,69.30
2019-03-16T14:10:45.267Z,70.71
2019-03-16T14:13:14.816Z,71.25
2019-03-16T14:15:44.235Z,71.28
2019-03-16T14:18:13.528Z,72.52
2019-03-16T14:20:42.851Z,71.42
2019-03-16T14:23:12.142Z,71.83
2019-03-16T14:25:42.145Z,71.24
2019-03-16T14:28:11.530Z,71.44
2019-03-16T14:30:44.813Z,71.04
2019-03-16T14:33:11.839Z,69.94
2019-03-16T14:35:41.132Z,71.23
2019-03-16T14:38:10.441Z,70.69
2019-03-16T14:40:39.912Z,71.05
2019-03-16T14:43:11.402Z,68.95
2019-03-16T14:45:40.225Z,69.16
2019-03-16T14:48:09.993Z,67.77
2019-03-16T14:50:39.262Z,67.28
2019-03-16T14:53:08.553Z,67.15
2019-03-16T14:55:37.910Z,67.48
2019-03-16T14:58:07.468Z,65.28
2019-03-16T15:00:38.763Z,65.31
2019-03-16T15:03:07.886Z,65.88
2019-03-16T15:05:37.689Z,67.00
2019-03-16T15:08:07.073Z,66.47
2019-03-16T15:10:36.356Z,66.84
2019-03-16T15:13:05.713Z,66.65
2019-03-16T15:15:35.077Z,65.92
2019-03-16T15:18:04.449Z,67.48
2019-03-16T15:20:33.755Z,68.12
2019-03-16T15:23:03.053Z,68.48
2019-03-16T15:25:32.728Z,68.92
2019-03-16T15:28:02.098Z,68.29
2019-03-16T15:30:31.446Z,68.34
2019-03-16T15:33:00.722Z,67.80
2019-03-16T15:35:30.101Z,68.47
2019-03-16T15:37:59.413Z,69.83
2019-03-16T15:40:28.911Z,68.55
2019-03-16T15:42:58.201Z,69.05
2019-03-16T15:45:28.127Z,67.66
2019-03-16T15:47:57.450Z,68.02
2019-03-16T15:50:27.006Z,68.41
2019-03-16T15:52:56.330Z,67.12
2019-03-16T15:55:25.698Z,67.34
2019-03-16T15:58:07.047Z,67.52
2019-03-16T16:00:26.183Z,68.60
2019-03-16T16:02:55.505Z,68.78
2019-03-16T16:05:24.981Z,68.93
2019-03-16T16:07:54.586Z,69.56
2019-03-16T16:10:23.925Z,70.65
2019-03-16T16:12:53.282Z,70.36
2019-03-16T16:15:22.561Z,71.66
2019-03-16T16:17:51.919Z,70.68
2019-03-16T16:20:21.432Z,71.20
2019-03-16T16:22:50.719Z,71.72
2019-03-16T16:25:20.033Z,70.67
2019-03-16T16:27:49.319Z,70.72
2019-03-16T16:30:18.677Z,71.00
2019-03-16T16:32:48.156Z,71.29
2019-03-16T16:35:17.535Z,71.55
2019-03-16T16:37:47.183Z,72.34
2019-03-16T16:40:16.514Z,72.20
2019-03-16T16:42:45.865Z,72.56
2019-03-16T16:45:15.456Z,72.94
2019-03-16T16:47:44.756Z,72.89
2019-03-16T16:50:14.675Z,73.08
2019-03-16T16:52:44.173Z,73.87
2019-03-16T16:55:13.642Z,73.99
2019-03-16T16:57:43.029Z,74.79
2019-03-16T17:00:15.929Z,74.91
2019-03-16T17:02:45.423Z,74.15
2019-03-16T17:05:15.059Z,75.25
2019-03-16T17:07:44.364Z,75.75
2019-03-16T17:10:14.502Z,75.94
2019-03-16T17:12:43.778Z,76.13
2019-03-16T17:15:14.167Z,77.41
2019-03-16T17:17:43.610Z,79.27
2019-03-16T17:20:13.164Z,82.04
2019-03-16T17:22:42.514Z,82.50
2019-03-16T17:25:12.465Z,83.73
2019-03-16T17:27:41.789Z,83.48
2019-03-16T17:30:16.364Z,83.48
2019-03-16T17:32:45.802Z,83.61
2019-03-16T17:35:15.247Z,84.49
2019-03-16T17:37:44.530Z,84.33
2019-03-16T17:40:13.860Z,84.32
2019-03-16T17:42:43.171Z,84.27
2019-03-16T17:45:12.740Z,82.99
2019-03-16T17:47:42.013Z,83.43
2019-03-16T17:50:11.595Z,83.93
2019-03-16T17:52:40.950Z,84.02
2019-03-16T17:55:10.299Z,84.15
2019-03-16T17:57:39.649Z,83.28
2019-03-16T18:00:10.271Z,82.33
2019-03-16T18:02:50.525Z,81.89
2019-03-16T18:05:10.710Z,81.60
2019-03-16T18:07:40.008Z,81.23
2019-03-16T18:10:09.557Z,81.13
2019-03-16T18:12:38.840Z,81.63
2019-03-16T18:15:11.773Z,81.77
2019-03-16T18:17:40.428Z,81.37
2019-03-16T18:20:10.471Z,81.68
2019-03-16T18:22:39.768Z,81.29
2019-03-16T18:25:09.997Z,81.44
2019-03-16T18:27:39.310Z,81.68
2019-03-16T18:30:10.680Z,81.29
2019-03-16T18:32:39.946Z,81.05
2019-03-16T18:35:09.258Z,81.67
2019-03-16T18:37:38.573Z,81.60
2019-03-16T18:40:09.117Z,82.58
2019-03-16T18:42:38.392Z,81.97
2019-03-16T18:45:10.069Z,81.87
2019-03-16T18:47:39.347Z,81.46
2019-03-16T18:50:08.849Z,81.04
2019-03-16T18:52:38.184Z,81.40
2019-03-16T18:55:08.488Z,80.55
2019-03-16T18:57:38.183Z,81.62
2019-03-16T19:00:08.055Z,80.72
2019-03-16T19:02:37.389Z,81.17
2019-03-16T19:05:07.261Z,81.58
2019-03-16T19:07:36.620Z,81.48
2019-03-16T19:10:06.647Z,82.15
2019-03-16T19:12:35.952Z,82.43
2019-03-16T19:15:05.826Z,83.02
2019-03-16T19:17:35.147Z,83.46
2019-03-16T19:20:04.653Z,83.61
2019-03-16T19:22:34.029Z,84.26
2019-03-16T19:25:03.333Z,84.99
2019-03-16T19:27:32.677Z,84.92
2019-03-16T19:30:02.008Z,85.81
2019-03-16T19:32:34.370Z,85.69
2019-03-16T19:35:02.336Z,85.59
2019-03-16T19:37:32.532Z,86.30
2019-03-16T19:40:01.885Z,86.53
2019-03-16T19:42:31.224Z,86.50
2019-03-16T19:45:00.538Z,87.04
2019-03-16T19:47:29.836Z,87.82
2019-03-16T19:49:59.197Z,87.32
2019-03-16T19:52:28.567Z,88.11
2019-03-16T19:54:57.874Z,88.03
2019-03-16T19:57:27.174Z,88.17
2019-03-16T19:59:56.652Z,87.96
2019-03-16T20:02:25.995Z,88.54
2019-03-16T20:04:55.267Z,88.67
2019-03-16T20:07:24.557Z,89.05
2019-03-16T20:09:53.957Z,88.93
2019-03-16T20:12:23.252Z,88.94
2019-03-16T20:14:52.541Z,89.01
2019-03-16T20:17:21.925Z,88.31
2019-03-16T20:19:51.285Z,88.47
2019-03-16T20:22:20.656Z,88.85
2019-03-16T20:24:49.922Z,89.35
2019-03-16T20:27:19.231Z,89.22
2019-03-16T20:29:48.591Z,89.25
2019-03-16T20:32:17.876Z,88.88
2019-03-16T20:34:47.160Z,89.34
2019-03-16T20:37:16.501Z,88.77
2019-03-16T20:39:46.175Z,89.30
2019-03-16T20:42:15.463Z,89.72
2019-03-16T20:44:44.801Z,89.35
2019-03-16T20:47:14.099Z,89.91
2019-03-16T20:49:43.415Z,90.35
2019-03-16T20:52:12.703Z,90.00
2019-03-16T20:54:42.167Z,90.62
2019-03-16T20:57:11.467Z,90.72
2019-03-16T20:59:40.722Z,90.63
2019-03-16T21:02:10.243Z,90.34
2019-03-16T21:04:39.646Z,90.16
2019-03-16T21:07:08.933Z,90.30
2019-03-16T21:09:38.557Z,90.19
2019-03-16T21:12:07.881Z,90.34
2019-03-16T21:14:37.156Z,90.83
2019-03-16T21:17:06.461Z,90.60
2019-03-16T21:19:35.825Z,90.61
2019-03-16T21:22:05.155Z,90.61
2019-03-16T21:24:34.460Z,90.64
2019-03-16T21:27:03.802Z,90.67
2019-03-16T21:29:33.097Z,90.32
2019-03-16T21:32:02.375Z,90.73
2019-03-16T21:34:33.385Z,90.64
2019-03-16T21:37:02.902Z,91.18
2019-03-16T21:39:32.191Z,91.71
2019-03-16T21:42:01.531Z,91.67
2019-03-16T21:44:30.827Z,91.98
2019-03-16T21:47:00.212Z,92.41
2019-03-16T21:49:29.509Z,92.58
2019-03-16T21:51:58.823Z,92.81
2019-03-16T21:54:28.183Z,93.08
2019-03-16T21:56:57.584Z,93.33
2019-03-16T21:59:26.869Z,93.62
2019-03-16T22:01:56.163Z,93.89
2019-03-16T22:04:25.649Z,93.93
2019-03-16T22:06:55.030Z,93.99
2019-03-16T22:09:24.354Z,94.10
2019-03-16T22:11:53.681Z,94.16
2019-03-16T22:14:22.983Z,94.22
2019-03-16T22:16:52.310Z,94.33
2019-03-16T22:19:21.666Z,94.26
2019-03-16T22:21:51.016Z,94.21
2019-03-16T22:24:20.358Z,94.31
2019-03-16T22:26:49.660Z,94.47
2019-03-16T22:29:18.952Z,94.32
2019-03-16T22:31:48.303Z,94.38
2019-03-16T22:34:17.603Z,94.45
2019-03-16T22:36:46.956Z,94.37
2019-03-16T22:39:16.301Z,94.38
2019-03-16T22:41:45.618Z,94.34
2019-03-16T22:44:14.907Z,94.48
2019-03-16T22:46:44.263Z,94.34
2019-03-16T22:49:13.585Z,94.41
2019-03-16T22:51:42.871Z,94.19
2019-03-16T22:54:12.160Z,94.30
2019-03-16T22:56:41.534Z,94.35
2019-03-16T22:59:10.880Z,94.12
2019-03-16T23:01:40.261Z,94.31
2019-03-16T23:04:09.514Z,94.27
2019-03-16T23:06:38.991Z,94.17
2019-03-16T23:09:08.862Z,94.19
2019-03-16T23:11:38.189Z,94.31
2019-03-16T23:14:07.479Z,94.24
2019-03-16T23:16:36.757Z,94.24
2019-03-16T23:19:06.127Z,94.19
2019-03-16T23:21:35.443Z,94.47
2019-03-16T23:24:04.795Z,94.54
2019-03-16T23:26:38.719Z,94.67
2019-03-16T23:29:06.135Z,94.73
2019-03-16T23:31:35.433Z,94.36
2019-03-16T23:34:04.953Z,94.45
2019-03-16T23:36:34.277Z,94.22
2019-03-16T23:39:04.117Z,94.27
2019-03-16T23:41:33.478Z,94.40
2019-03-16T23:44:02.792Z,94.50
2019-03-16T23:46:32.138Z,94.41
2019-03-16T23:49:01.477Z,94.42
2019-03-16T23:51:30.767Z,94.46
2019-03-16T23:54:00.030Z,94.63
2019-03-16T23:56:29.309Z,94.74
2019-03-16T23:58:58.659Z,94.76
